SWA924 KBNA-KDCA
Flight info
| Callsign | SWA924 |
|---|---|
| Flight time | 1h 16m |
| Altitude | 39000 |
| Route | KRSTA4 OLSIE FFT HVQ TRUPS5 |
| Aircraft | B38M/M-SADE2E3GHIJ4J7P2RWZ/LB1D1 |
Departure
| Time | 2026-05-07 00:10 |
|---|---|
| Airport | Nashville International Airport (KBNA) |
Arrival
| Time | 2026-05-07 01:27 |
|---|---|
| Airport | Ronald Reagan Washington National Airport (KDCA) |
| Time | Latitude | Longitude | Altitude | Speed | Heading |
|---|---|---|---|---|---|
| 2026-05-06 23:37 | 36.12726 | -86.66905 | 579 ft | 0 kts | 31° |
| 2026-05-06 23:57 | 36.12707 | -86.66919 | 588 ft | 4 kts | 29° |
| 2026-05-06 23:57 | 36.12683 | -86.66928 | 580 ft | 4 kts | 353° |
| 2026-05-06 23:58 | 36.12661 | -86.66916 | 582 ft | 4 kts | 314° |
| 2026-05-06 23:58 | 36.12657 | -86.66912 | 582 ft | 1 kts | 311° |
| 2026-05-07 00:05 | 36.12658 | -86.66918 | 583 ft | 1 kts | 278° |
| 2026-05-07 00:05 | 36.12655 | -86.66922 | 581 ft | 2 kts | 230° |
| 2026-05-07 00:05 | 36.12629 | -86.66928 | 581 ft | 3 kts | 162° |
| 2026-05-07 00:05 | 36.12595 | -86.66911 | 582 ft | 11 kts | 162° |
| 2026-05-07 00:06 | 36.12495 | -86.66941 | 584 ft | 17 kts | 206° |
| 2026-05-07 00:06 | 36.12404 | -86.66899 | 584 ft | 14 kts | 132° |
| 2026-05-07 00:06 | 36.12345 | -86.66789 | 584 ft | 17 kts | 113° |
| 2026-05-07 00:06 | 36.12309 | -86.66650 | 583 ft | 17 kts | 105° |
| 2026-05-07 00:07 | 36.12247 | -86.66525 | 580 ft | 9 kts | 168° |
| 2026-05-07 00:07 | 36.12187 | -86.66542 | 578 ft | 12 kts | 200° |
| 2026-05-07 00:07 | 36.12087 | -86.66583 | 584 ft | 16 kts | 198° |
| 2026-05-07 00:07 | 36.11982 | -86.66624 | 589 ft | 16 kts | 197° |
| 2026-05-07 00:08 | 36.11868 | -86.66670 | 590 ft | 18 kts | 198° |
| 2026-05-07 00:08 | 36.11742 | -86.66704 | 595 ft | 19 kts | 187° |
| 2026-05-07 00:08 | 36.11638 | -86.66748 | 597 ft | 15 kts | 215° |
| 2026-05-07 00:08 | 36.11536 | -86.66803 | 599 ft | 17 kts | 199° |
| 2026-05-07 00:09 | 36.11423 | -86.66848 | 603 ft | 18 kts | 198° |
| 2026-05-07 00:09 | 36.11310 | -86.66851 | 602 ft | 15 kts | 134° |
| 2026-05-07 00:09 | 36.11297 | -86.66758 | 602 ft | 7 kts | 49° |
| 2026-05-07 00:09 | 36.11352 | -86.66729 | 602 ft | 14 kts | 18° |
| 2026-05-07 00:10 | 36.11672 | -86.66603 | 598 ft | 98 kts | 18° |
| 2026-05-07 00:10 | 36.12619 | -86.66230 | 629 ft | 180 kts | 18° |
| 2026-05-07 00:10 | 36.13867 | -86.65731 | 1652 ft | 197 kts | 14° |
| 2026-05-07 00:10 | 36.15257 | -86.65394 | 2844 ft | 215 kts | 10° |
| 2026-05-07 00:11 | 36.16817 | -86.64975 | 3752 ft | 235 kts | 12° |
| 2026-05-07 00:11 | 36.18406 | -86.64475 | 4976 ft | 247 kts | 8° |
| 2026-05-07 00:11 | 36.20105 | -86.63951 | 6185 ft | 253 kts | 4° |
| 2026-05-07 00:11 | 36.21848 | -86.63424 | 7423 ft | 262 kts | 3° |
| 2026-05-07 00:12 | 36.23670 | -86.62882 | 8345 ft | 280 kts | 4° |
| 2026-05-07 00:12 | 36.25604 | -86.62304 | 9180 ft | 299 kts | 5° |
| 2026-05-07 00:12 | 36.27695 | -86.61671 | 10226 ft | 307 kts | 6° |
| 2026-05-07 00:12 | 36.29813 | -86.60971 | 11081 ft | 328 kts | 12° |
| 2026-05-07 00:13 | 36.32003 | -86.59881 | 11762 ft | 349 kts | 15° |
| 2026-05-07 00:13 | 36.34320 | -86.58732 | 12579 ft | 361 kts | 14° |
| 2026-05-07 00:13 | 36.36671 | -86.57587 | 13513 ft | 367 kts | 14° |
| 2026-05-07 00:13 | 36.39061 | -86.56437 | 14479 ft | 371 kts | 14° |
| 2026-05-07 00:14 | 36.41457 | -86.55293 | 15393 ft | 375 kts | 13° |
| 2026-05-07 00:14 | 36.43940 | -86.54111 | 16274 ft | 381 kts | 13° |
| 2026-05-07 00:14 | 36.46436 | -86.52922 | 17130 ft | 385 kts | 13° |
| 2026-05-07 00:14 | 36.48926 | -86.51736 | 17948 ft | 389 kts | 13° |
| 2026-05-07 00:15 | 36.51501 | -86.50509 | 18725 ft | 394 kts | 13° |
| 2026-05-07 00:15 | 36.54044 | -86.49297 | 19513 ft | 396 kts | 12° |
| 2026-05-07 00:15 | 36.56628 | -86.48063 | 20249 ft | 400 kts | 12° |
| 2026-05-07 00:15 | 36.59234 | -86.46758 | 20964 ft | 405 kts | 14° |
| 2026-05-07 00:16 | 36.61838 | -86.45423 | 21685 ft | 408 kts | 14° |
| 2026-05-07 00:16 | 36.64470 | -86.44080 | 22346 ft | 412 kts | 14° |
| 2026-05-07 00:16 | 36.67140 | -86.42717 | 23031 ft | 414 kts | 14° |
| 2026-05-07 00:16 | 36.69800 | -86.41360 | 23640 ft | 418 kts | 14° |
| 2026-05-07 00:17 | 36.72511 | -86.39945 | 24266 ft | 424 kts | 17° |
| 2026-05-07 00:17 | 36.75145 | -86.38211 | 24870 ft | 430 kts | 19° |
| 2026-05-07 00:17 | 36.77808 | -86.36459 | 25368 ft | 434 kts | 19° |
| 2026-05-07 00:17 | 36.80497 | -86.34710 | 25844 ft | 440 kts | 19° |
| 2026-05-07 00:18 | 36.83222 | -86.32949 | 25976 ft | 443 kts | 19° |
| 2026-05-07 00:18 | 36.85972 | -86.31176 | 26016 ft | 442 kts | 19° |
| 2026-05-07 00:18 | 36.88677 | -86.29432 | 26023 ft | 442 kts | 19° |
| 2026-05-07 00:18 | 36.91395 | -86.27679 | 26019 ft | 442 kts | 19° |
| 2026-05-07 00:19 | 36.94163 | -86.25892 | 26385 ft | 444 kts | 19° |
| 2026-05-07 00:19 | 36.96894 | -86.24128 | 26944 ft | 446 kts | 19° |
| 2026-05-07 00:19 | 36.99651 | -86.22344 | 27413 ft | 450 kts | 19° |
| 2026-05-07 00:19 | 37.02468 | -86.20521 | 27897 ft | 453 kts | 19° |
| 2026-05-07 00:20 | 37.05261 | -86.18712 | 28366 ft | 456 kts | 19° |
| 2026-05-07 00:20 | 37.08100 | -86.16872 | 28817 ft | 460 kts | 19° |
| 2026-05-07 00:20 | 37.10914 | -86.15046 | 29257 ft | 463 kts | 19° |
| 2026-05-07 00:20 | 37.13812 | -86.13163 | 29692 ft | 466 kts | 19° |
| 2026-05-07 00:21 | 37.16675 | -86.11303 | 30096 ft | 469 kts | 19° |
| 2026-05-07 00:21 | 37.19594 | -86.09405 | 30514 ft | 472 kts | 19° |
| 2026-05-07 00:21 | 37.22439 | -86.07475 | 30908 ft | 480 kts | 25° |
| 2026-05-07 00:21 | 37.25090 | -86.04702 | 31373 ft | 493 kts | 38° |
| 2026-05-07 00:22 | 37.27543 | -86.01765 | 31703 ft | 497 kts | 36° |
| 2026-05-07 00:22 | 37.30101 | -85.98734 | 31830 ft | 506 kts | 35° |
| 2026-05-07 00:22 | 37.32651 | -85.95678 | 32093 ft | 512 kts | 36° |
| 2026-05-07 00:22 | 37.35192 | -85.92618 | 32450 ft | 515 kts | 35° |
| 2026-05-07 00:23 | 37.37815 | -85.89457 | 32809 ft | 517 kts | 35° |
| 2026-05-07 00:23 | 37.40424 | -85.86305 | 33226 ft | 518 kts | 34° |
| 2026-05-07 00:23 | 37.42990 | -85.83203 | 33689 ft | 518 kts | 34° |
| 2026-05-07 00:23 | 37.45632 | -85.80010 | 34144 ft | 518 kts | 33° |
| 2026-05-07 00:24 | 37.48201 | -85.76898 | 34593 ft | 518 kts | 33° |
| 2026-05-07 00:24 | 37.50816 | -85.73728 | 35006 ft | 518 kts | 33° |
| 2026-05-07 00:24 | 37.53383 | -85.70613 | 35426 ft | 518 kts | 33° |
| 2026-05-07 00:24 | 37.55991 | -85.67447 | 35839 ft | 517 kts | 33° |
| 2026-05-07 00:25 | 37.58571 | -85.64310 | 36222 ft | 517 kts | 33° |
| 2026-05-07 00:25 | 37.61177 | -85.61138 | 36587 ft | 518 kts | 33° |
| 2026-05-07 00:25 | 37.63730 | -85.58029 | 36951 ft | 517 kts | 33° |
| 2026-05-07 00:25 | 37.66320 | -85.54870 | 37347 ft | 516 kts | 33° |
| 2026-05-07 00:26 | 37.68906 | -85.51714 | 37654 ft | 517 kts | 32° |
| 2026-05-07 00:26 | 37.71495 | -85.48550 | 37949 ft | 517 kts | 32° |
| 2026-05-07 00:26 | 37.74092 | -85.45374 | 38229 ft | 518 kts | 32° |
| 2026-05-07 00:26 | 37.76644 | -85.42249 | 38512 ft | 518 kts | 32° |
| 2026-05-07 00:27 | 37.79256 | -85.39047 | 38796 ft | 519 kts | 32° |
| 2026-05-07 00:27 | 37.81848 | -85.35866 | 39012 ft | 520 kts | 32° |
| 2026-05-07 00:27 | 37.87017 | -85.29514 | 39050 ft | 519 kts | 32° |
| 2026-05-07 00:28 | 37.92178 | -85.23159 | 39048 ft | 519 kts | 32° |
| 2026-05-07 00:28 | 37.97367 | -85.16757 | 39049 ft | 519 kts | 32° |
| 2026-05-07 00:29 | 38.02521 | -85.10384 | 39048 ft | 519 kts | 32° |
| 2026-05-07 00:30 | 38.12864 | -84.97559 | 39050 ft | 519 kts | 32° |
| 2026-05-07 00:30 | 38.15303 | -84.94202 | 39032 ft | 533 kts | 44° |
| 2026-05-07 00:30 | 38.17278 | -84.90124 | 39054 ft | 549 kts | 57° |
| 2026-05-07 00:31 | 38.18533 | -84.85474 | 39029 ft | 563 kts | 75° |
| 2026-05-07 00:31 | 38.18949 | -84.80490 | 39061 ft | 568 kts | 85° |
| 2026-05-07 00:31 | 38.19583 | -84.70495 | 39054 ft | 570 kts | 83° |
| 2026-05-07 00:32 | 38.20229 | -84.60510 | 39043 ft | 564 kts | 83° |
| 2026-05-07 00:32 | 38.20756 | -84.52246 | 39015 ft | 562 kts | 83° |
| 2026-05-07 00:33 | 38.21482 | -84.40705 | 39024 ft | 562 kts | 83° |
| 2026-05-07 00:33 | 38.22097 | -84.30788 | 39026 ft | 562 kts | 83° |
| 2026-05-07 00:34 | 38.22604 | -84.22499 | 39028 ft | 562 kts | 83° |
| 2026-05-07 00:34 | 38.23200 | -84.12652 | 39011 ft | 562 kts | 83° |
| 2026-05-07 00:35 | 38.23791 | -84.02735 | 39025 ft | 562 kts | 84° |
| 2026-05-07 00:35 | 38.24370 | -83.92874 | 39026 ft | 562 kts | 84° |
| 2026-05-07 00:36 | 38.24948 | -83.82894 | 39022 ft | 562 kts | 84° |
| 2026-05-07 00:36 | 38.25516 | -83.72939 | 39018 ft | 563 kts | 84° |
| 2026-05-07 00:37 | 38.26071 | -83.63070 | 39027 ft | 562 kts | 84° |
| 2026-05-07 00:37 | 38.26619 | -83.53174 | 39025 ft | 562 kts | 84° |
| 2026-05-07 00:38 | 38.27161 | -83.43220 | 39013 ft | 563 kts | 84° |
| 2026-05-07 00:38 | 38.27693 | -83.33301 | 39004 ft | 563 kts | 84° |
| 2026-05-07 00:39 | 38.28219 | -83.23338 | 39026 ft | 563 kts | 84° |
| 2026-05-07 00:39 | 38.28736 | -83.13385 | 39025 ft | 563 kts | 84° |
| 2026-05-07 00:40 | 38.29237 | -83.03577 | 39029 ft | 563 kts | 84° |
| 2026-05-07 00:40 | 38.29740 | -82.93576 | 39021 ft | 562 kts | 84° |
| 2026-05-07 00:41 | 38.30234 | -82.83590 | 39028 ft | 562 kts | 84° |
| 2026-05-07 00:41 | 38.30715 | -82.73674 | 39014 ft | 562 kts | 84° |
| 2026-05-07 00:42 | 38.31186 | -82.63777 | 38984 ft | 563 kts | 83° |
| 2026-05-07 00:42 | 38.31653 | -82.53838 | 38966 ft | 562 kts | 83° |
| 2026-05-07 00:43 | 38.32110 | -82.43880 | 38966 ft | 563 kts | 83° |
| 2026-05-07 00:43 | 38.32559 | -82.33951 | 38957 ft | 564 kts | 83° |
| 2026-05-07 00:44 | 38.33001 | -82.23958 | 38970 ft | 564 kts | 83° |
| 2026-05-07 00:44 | 38.33432 | -82.14037 | 38961 ft | 564 kts | 83° |
| 2026-05-07 00:45 | 38.33857 | -82.04079 | 38977 ft | 564 kts | 83° |
| 2026-05-07 00:45 | 38.34277 | -81.94085 | 38966 ft | 564 kts | 83° |
| 2026-05-07 00:46 | 38.34688 | -81.84127 | 38962 ft | 564 kts | 83° |
| 2026-05-07 00:46 | 38.34855 | -81.74191 | 38967 ft | 566 kts | 89° |
| 2026-05-07 00:47 | 38.34573 | -81.64109 | 38949 ft | 567 kts | 90° |
| 2026-05-07 00:47 | 38.34260 | -81.54183 | 38969 ft | 567 kts | 90° |
| 2026-05-07 00:48 | 38.33932 | -81.44094 | 38971 ft | 567 kts | 90° |
| 2026-05-07 00:48 | 38.33597 | -81.34025 | 38964 ft | 567 kts | 90° |
| 2026-05-07 00:49 | 38.33255 | -81.24004 | 38958 ft | 568 kts | 90° |
| 2026-05-07 00:49 | 38.32902 | -81.13937 | 38969 ft | 568 kts | 90° |
| 2026-05-07 00:50 | 38.32541 | -81.03895 | 38847 ft | 570 kts | 90° |
| 2026-05-07 00:50 | 38.32424 | -81.00963 | 38645 ft | 573 kts | 91° |
| 2026-05-07 00:50 | 38.32191 | -80.95867 | 38743 ft | 575 kts | 91° |
| 2026-05-07 00:51 | 38.31803 | -80.85639 | 38938 ft | 579 kts | 89° |
| 2026-05-07 00:51 | 38.31476 | -80.75331 | 38965 ft | 585 kts | 90° |
| 2026-05-07 00:52 | 38.31092 | -80.65146 | 38983 ft | 568 kts | 89° |
| 2026-05-07 00:52 | 38.30712 | -80.55248 | 38967 ft | 559 kts | 89° |
| 2026-05-07 00:53 | 38.30321 | -80.45335 | 38956 ft | 559 kts | 89° |
| 2026-05-07 00:53 | 38.29921 | -80.35398 | 38972 ft | 562 kts | 89° |
| 2026-05-07 00:54 | 38.29516 | -80.25538 | 38966 ft | 561 kts | 89° |
| 2026-05-07 00:54 | 38.29098 | -80.15545 | 38974 ft | 562 kts | 89° |
| 2026-05-07 00:55 | 38.28675 | -80.05670 | 38968 ft | 560 kts | 89° |
| 2026-05-07 00:55 | 38.28246 | -79.95826 | 38966 ft | 560 kts | 89° |
| 2026-05-07 00:56 | 38.27806 | -79.85929 | 38958 ft | 560 kts | 89° |
| 2026-05-07 00:56 | 38.27585 | -79.80961 | 38710 ft | 561 kts | 90° |
| 2026-05-07 00:56 | 38.27470 | -79.76003 | 37779 ft | 558 kts | 84° |
| 2026-05-07 00:57 | 38.28055 | -79.71171 | 36784 ft | 545 kts | 64° |
| 2026-05-07 00:57 | 38.29449 | -79.66868 | 36475 ft | 527 kts | 58° |
| 2026-05-07 00:57 | 38.30885 | -79.62584 | 35821 ft | 525 kts | 59° |
| 2026-05-07 00:57 | 38.32334 | -79.58306 | 34920 ft | 528 kts | 59° |
| 2026-05-07 00:58 | 38.33797 | -79.54019 | 34130 ft | 527 kts | 60° |
| 2026-05-07 00:58 | 38.35260 | -79.49746 | 33575 ft | 523 kts | 60° |
| 2026-05-07 00:58 | 38.36718 | -79.45488 | 33146 ft | 523 kts | 60° |
| 2026-05-07 00:58 | 38.38168 | -79.41246 | 32614 ft | 520 kts | 60° |
| 2026-05-07 00:59 | 38.41010 | -79.32910 | 31546 ft | 512 kts | 61° |
| 2026-05-07 00:59 | 38.42349 | -79.28730 | 30997 ft | 511 kts | 68° |
| 2026-05-07 00:59 | 38.43166 | -79.24298 | 30326 ft | 509 kts | 75° |
| 2026-05-07 01:00 | 38.43933 | -79.19909 | 29857 ft | 503 kts | 74° |
| 2026-05-07 01:00 | 38.44701 | -79.15570 | 29435 ft | 500 kts | 74° |
| 2026-05-07 01:00 | 38.45457 | -79.11266 | 28931 ft | 495 kts | 75° |
| 2026-05-07 01:00 | 38.46206 | -79.06999 | 28311 ft | 491 kts | 75° |
| 2026-05-07 01:01 | 38.46947 | -79.02758 | 27652 ft | 488 kts | 75° |
| 2026-05-07 01:01 | 38.47677 | -78.98573 | 27119 ft | 484 kts | 76° |
| 2026-05-07 01:01 | 38.48403 | -78.94399 | 26615 ft | 480 kts | 76° |
| 2026-05-07 01:01 | 38.49126 | -78.90231 | 26074 ft | 476 kts | 76° |
| 2026-05-07 01:02 | 38.49832 | -78.86129 | 25533 ft | 472 kts | 77° |
| 2026-05-07 01:02 | 38.50479 | -78.82051 | 24895 ft | 464 kts | 77° |
| 2026-05-07 01:02 | 38.51105 | -78.78102 | 24393 ft | 456 kts | 77° |
| 2026-05-07 01:02 | 38.51732 | -78.74163 | 23891 ft | 452 kts | 77° |
| 2026-05-07 01:03 | 38.52353 | -78.70251 | 23391 ft | 448 kts | 77° |
| 2026-05-07 01:03 | 38.52971 | -78.66359 | 22886 ft | 444 kts | 77° |
| 2026-05-07 01:03 | 38.53586 | -78.62519 | 22480 ft | 438 kts | 78° |
| 2026-05-07 01:03 | 38.54189 | -78.58734 | 22170 ft | 432 kts | 78° |
| 2026-05-07 01:04 | 38.54785 | -78.54983 | 21821 ft | 430 kts | 78° |
| 2026-05-07 01:04 | 38.55377 | -78.51258 | 21429 ft | 428 kts | 78° |
| 2026-05-07 01:04 | 38.55966 | -78.47540 | 21094 ft | 425 kts | 78° |
| 2026-05-07 01:04 | 38.56549 | -78.43852 | 20741 ft | 422 kts | 78° |
| 2026-05-07 01:05 | 38.57135 | -78.40187 | 20469 ft | 420 kts | 78° |
| 2026-05-07 01:05 | 38.57769 | -78.36538 | 20314 ft | 420 kts | 77° |
| 2026-05-07 01:05 | 38.58398 | -78.32903 | 19942 ft | 418 kts | 78° |
| 2026-05-07 01:05 | 38.59021 | -78.29282 | 19454 ft | 415 kts | 78° |
| 2026-05-07 01:06 | 38.59637 | -78.25694 | 18968 ft | 412 kts | 77° |
| 2026-05-07 01:06 | 38.60560 | -78.22258 | 18416 ft | 407 kts | 66° |
| 2026-05-07 01:06 | 38.61655 | -78.18941 | 17974 ft | 399 kts | 67° |
| 2026-05-07 01:06 | 38.62701 | -78.15709 | 17562 ft | 395 kts | 67° |
| 2026-05-07 01:07 | 38.63752 | -78.12461 | 17174 ft | 394 kts | 68° |
| 2026-05-07 01:07 | 38.64799 | -78.09217 | 16687 ft | 392 kts | 68° |
| 2026-05-07 01:07 | 38.65838 | -78.05989 | 16190 ft | 392 kts | 68° |
| 2026-05-07 01:07 | 38.66871 | -78.02778 | 15742 ft | 389 kts | 68° |
| 2026-05-07 01:08 | 38.67891 | -77.99601 | 15300 ft | 379 kts | 68° |
| 2026-05-07 01:08 | 38.68865 | -77.96569 | 14851 ft | 365 kts | 68° |
| 2026-05-07 01:08 | 38.69817 | -77.93595 | 14434 ft | 353 kts | 68° |
| 2026-05-07 01:08 | 38.70733 | -77.90732 | 14023 ft | 345 kts | 68° |
| 2026-05-07 01:09 | 38.71645 | -77.87881 | 13603 ft | 346 kts | 68° |
| 2026-05-07 01:09 | 38.72551 | -77.85049 | 13185 ft | 341 kts | 68° |
| 2026-05-07 01:09 | 38.73588 | -77.82354 | 12749 ft | 336 kts | 52° |
| 2026-05-07 01:09 | 38.75117 | -77.80124 | 12418 ft | 330 kts | 46° |
| 2026-05-07 01:10 | 38.76635 | -77.77941 | 12109 ft | 326 kts | 47° |
| 2026-05-07 01:10 | 38.78116 | -77.75806 | 11770 ft | 325 kts | 47° |
| 2026-05-07 01:10 | 38.79615 | -77.73646 | 11430 ft | 323 kts | 47° |
| 2026-05-07 01:10 | 38.81103 | -77.71511 | 11250 ft | 320 kts | 46° |
| 2026-05-07 01:11 | 38.82597 | -77.69387 | 11266 ft | 321 kts | 46° |
| 2026-05-07 01:11 | 38.84094 | -77.67261 | 11086 ft | 321 kts | 46° |
| 2026-05-07 01:11 | 38.85373 | -77.64955 | 10670 ft | 316 kts | 66° |
| 2026-05-07 01:11 | 38.85971 | -77.62283 | 10220 ft | 308 kts | 78° |
| 2026-05-07 01:12 | 38.86537 | -77.59617 | 9696 ft | 311 kts | 74° |
| 2026-05-07 01:12 | 38.87225 | -77.56997 | 9304 ft | 307 kts | 72° |
| 2026-05-07 01:12 | 38.87975 | -77.54485 | 8994 ft | 296 kts | 70° |
| 2026-05-07 01:12 | 38.88750 | -77.52093 | 8709 ft | 285 kts | 69° |
| 2026-05-07 01:13 | 38.89547 | -77.49749 | 8436 ft | 291 kts | 68° |
| 2026-05-07 01:13 | 38.90351 | -77.47335 | 8110 ft | 295 kts | 75° |
| 2026-05-07 01:13 | 38.90522 | -77.44769 | 7759 ft | 287 kts | 105° |
| 2026-05-07 01:13 | 38.89862 | -77.42411 | 7496 ft | 281 kts | 123° |
| 2026-05-07 01:14 | 38.88941 | -77.40142 | 7207 ft | 288 kts | 124° |
| 2026-05-07 01:14 | 38.87999 | -77.37880 | 6932 ft | 287 kts | 124° |
| 2026-05-07 01:14 | 38.87057 | -77.35659 | 6635 ft | 287 kts | 125° |
| 2026-05-07 01:14 | 38.86098 | -77.33427 | 6348 ft | 286 kts | 125° |
| 2026-05-07 01:15 | 38.85145 | -77.31223 | 6064 ft | 284 kts | 125° |
| 2026-05-07 01:15 | 38.84162 | -77.29018 | 5912 ft | 279 kts | 126° |
| 2026-05-07 01:15 | 38.83207 | -77.26893 | 5788 ft | 272 kts | 127° |
| 2026-05-07 01:15 | 38.82268 | -77.24804 | 5666 ft | 270 kts | 127° |
| 2026-05-07 01:16 | 38.81342 | -77.22745 | 5557 ft | 269 kts | 127° |
| 2026-05-07 01:16 | 38.80399 | -77.20654 | 5438 ft | 269 kts | 127° |
| 2026-05-07 01:16 | 38.79463 | -77.18574 | 5315 ft | 269 kts | 127° |
| 2026-05-07 01:16 | 38.78527 | -77.16497 | 5204 ft | 269 kts | 127° |
| 2026-05-07 01:17 | 38.77593 | -77.14425 | 5089 ft | 269 kts | 127° |
| 2026-05-07 01:17 | 38.76479 | -77.12579 | 4937 ft | 254 kts | 150° |
| 2026-05-07 01:17 | 38.74940 | -77.11689 | 4847 ft | 238 kts | 176° |
| 2026-05-07 01:17 | 38.73310 | -77.11443 | 4765 ft | 236 kts | 180° |
| 2026-05-07 01:18 | 38.71685 | -77.11261 | 4657 ft | 232 kts | 181° |
| 2026-05-07 01:18 | 38.70141 | -77.11117 | 4567 ft | 216 kts | 183° |
| 2026-05-07 01:18 | 38.68686 | -77.11001 | 4464 ft | 200 kts | 184° |
| 2026-05-07 01:18 | 38.67353 | -77.10905 | 4363 ft | 184 kts | 184° |
| 2026-05-07 01:19 | 38.66859 | -77.10872 | 4334 ft | 178 kts | 185° |
| 2026-05-07 01:19 | 38.65664 | -77.10796 | 4258 ft | 170 kts | 185° |
| 2026-05-07 01:19 | 38.64504 | -77.10727 | 4194 ft | 168 kts | 185° |
| 2026-05-07 01:20 | 38.63327 | -77.10659 | 4129 ft | 166 kts | 186° |
| 2026-05-07 01:20 | 38.62257 | -77.10985 | 3993 ft | 155 kts | 214° |
| 2026-05-07 01:20 | 38.61297 | -77.11594 | 3938 ft | 161 kts | 194° |
| 2026-05-07 01:20 | 38.60179 | -77.11294 | 3837 ft | 178 kts | 156° |
| 2026-05-07 01:21 | 38.59371 | -77.09991 | 3666 ft | 202 kts | 119° |
| 2026-05-07 01:21 | 38.59235 | -77.08135 | 3413 ft | 218 kts | 92° |
| 2026-05-07 01:21 | 38.59469 | -77.06197 | 3130 ft | 226 kts | 76° |
| 2026-05-07 01:21 | 38.60352 | -77.04549 | 2968 ft | 225 kts | 39° |
| 2026-05-07 01:22 | 38.61637 | -77.03443 | 3027 ft | 224 kts | 30° |
| 2026-05-07 01:22 | 38.62972 | -77.02410 | 3006 ft | 225 kts | 27° |
| 2026-05-07 01:22 | 38.64421 | -77.01820 | 2943 ft | 213 kts | 358° |
| 2026-05-07 01:22 | 38.65863 | -77.01811 | 2993 ft | 203 kts | 348° |
| 2026-05-07 01:23 | 38.67264 | -77.01952 | 2935 ft | 201 kts | 346° |
| 2026-05-07 01:23 | 38.68658 | -77.02104 | 2834 ft | 199 kts | 346° |
| 2026-05-07 01:23 | 38.70004 | -77.02244 | 2801 ft | 191 kts | 346° |
| 2026-05-07 01:23 | 38.71324 | -77.02380 | 2768 ft | 190 kts | 346° |
| 2026-05-07 01:24 | 38.72640 | -77.02516 | 2501 ft | 188 kts | 346° |
| 2026-05-07 01:24 | 38.73918 | -77.02643 | 2251 ft | 181 kts | 348° |
| 2026-05-07 01:24 | 38.75151 | -77.02769 | 1968 ft | 174 kts | 353° |
| 2026-05-07 01:24 | 38.76321 | -77.02887 | 1699 ft | 162 kts | 355° |
| 2026-05-07 01:25 | 38.77412 | -77.02996 | 1438 ft | 154 kts | 355° |
| 2026-05-07 01:25 | 38.78463 | -77.03100 | 1205 ft | 150 kts | 355° |
| 2026-05-07 01:25 | 38.79504 | -77.03205 | 1022 ft | 150 kts | 355° |
| 2026-05-07 01:25 | 38.80542 | -77.03312 | 751 ft | 148 kts | 355° |
| 2026-05-07 01:26 | 38.81563 | -77.03392 | 594 ft | 149 kts | 354° |
| 2026-05-07 01:26 | 38.82586 | -77.03531 | 384 ft | 146 kts | 355° |
| 2026-05-07 01:26 | 38.83615 | -77.03622 | 174 ft | 150 kts | 355° |
| 2026-05-07 01:26 | 38.84632 | -77.03723 | 29 ft | 138 kts | 355° |
| 2026-05-07 01:27 | 38.85326 | -77.03808 | 23 ft | 72 kts | 358° |
| 2026-05-07 01:27 | 38.85535 | -77.03902 | 29 ft | 11 kts | 313° |
| 2026-05-07 01:27 | 38.85545 | -77.03915 | 29 ft | 0 kts | 313° |
| 2026-05-07 01:28 | 38.85550 | -77.03922 | 28 ft | 7 kts | 311° |
| 2026-05-07 01:28 | 38.85560 | -77.03986 | 27 ft | 15 kts | 263° |
| 2026-05-07 01:29 | 38.85531 | -77.04119 | 26 ft | 14 kts | 251° |
| 2026-05-07 01:29 | 38.85494 | -77.04191 | 27 ft | 6 kts | 204° |
| 2026-05-07 01:29 | 38.85464 | -77.04194 | 27 ft | 0 kts | 161° |